sensor_id;sensor_type;location;lat;lon;timestamp;temperature;humidity
42913;DHT22;50720;54.324;18.558;2022-07-23T00:01:02;18.20;99.90
42913;DHT22;50720;54.324;18.558;2022-07-23T00:03:32;18.10;99.90
42913;DHT22;50720;54.324;18.558;2022-07-23T00:06:03;18.00;99.90
42913;DHT22;50720;54.324;18.558;2022-07-23T00:08:37;18.00;99.90
42913;DHT22;50720;54.324;18.558;2022-07-23T00:11:06;17.90;99.90
42913;DHT22;50720;54.324;18.558;2022-07-23T00:13:44;17.90;99.90
42913;DHT22;50720;54.324;18.558;2022-07-23T00:16:15;17.70;99.90
42913;DHT22;50720;54.324;18.558;2022-07-23T00:18:48;17.70;99.90
42913;DHT22;50720;54.324;18.558;2022-07-23T00:21:19;17.70;99.90
42913;DHT22;50720;54.324;18.558;2022-07-23T00:26:52;17.60;99.90
42913;DHT22;50720;54.324;18.558;2022-07-23T00:29:22;17.60;99.90
42913;DHT22;50720;54.324;18.558;2022-07-23T00:31:51;17.60;99.90
42913;DHT22;50720;54.324;18.558;2022-07-23T00:34:21;17.50;99.90
42913;DHT22;50720;54.324;18.558;2022-07-23T00:36:53;17.50;99.90
42913;DHT22;50720;54.324;18.558;2022-07-23T00:39:22;17.60;99.90
42913;DHT22;50720;54.324;18.558;2022-07-23T00:41:53;17.50;99.90
42913;DHT22;50720;54.324;18.558;2022-07-23T00:44:23;17.50;99.90
42913;DHT22;50720;54.324;18.558;2022-07-23T00:46:55;17.50;99.90
42913;DHT22;50720;54.324;18.558;2022-07-23T00:49:27;17.50;99.90
42913;DHT22;50720;54.324;18.558;2022-07-23T00:52:02;17.50;99.90
42913;DHT22;50720;54.324;18.558;2022-07-23T00:54:32;17.50;99.90
42913;DHT22;50720;54.324;18.558;2022-07-23T00:57:02;17.50;99.90
42913;DHT22;50720;54.324;18.558;2022-07-23T00:59:32;17.60;99.90
42913;DHT22;50720;54.324;18.558;2022-07-23T01:02:01;17.70;99.90
42913;DHT22;50720;54.324;18.558;2022-07-23T01:04:31;17.70;99.90
42913;DHT22;50720;54.324;18.558;2022-07-23T01:07:02;17.80;99.90
42913;DHT22;50720;54.324;18.558;2022-07-23T01:09:32;17.80;99.90
42913;DHT22;50720;54.324;18.558;2022-07-23T01:12:02;17.70;99.90
42913;DHT22;50720;54.324;18.558;2022-07-23T01:14:32;17.80;99.90
42913;DHT22;50720;54.324;18.558;2022-07-23T01:17:01;17.80;99.90
42913;DHT22;50720;54.324;18.558;2022-07-23T01:19:33;17.80;99.90
42913;DHT22;50720;54.324;18.558;2022-07-23T01:22:04;17.90;99.90
42913;DHT22;50720;54.324;18.558;2022-07-23T01:24:36;17.80;99.90
42913;DHT22;50720;54.324;18.558;2022-07-23T01:27:05;17.90;99.90
42913;DHT22;50720;54.324;18.558;2022-07-23T01:29:35;17.90;99.90
42913;DHT22;50720;54.324;18.558;2022-07-23T01:32:06;17.90;99.90
42913;DHT22;50720;54.324;18.558;2022-07-23T01:34:36;17.90;99.90
42913;DHT22;50720;54.324;18.558;2022-07-23T01:37:06;17.90;99.90
42913;DHT22;50720;54.324;18.558;2022-07-23T01:39:37;17.80;99.90
42913;DHT22;50720;54.324;18.558;2022-07-23T01:42:06;17.80;99.90
42913;DHT22;50720;54.324;18.558;2022-07-23T01:44:36;17.80;99.90
42913;DHT22;50720;54.324;18.558;2022-07-23T01:47:05;17.80;99.90
42913;DHT22;50720;54.324;18.558;2022-07-23T01:49:36;17.70;99.90
42913;DHT22;50720;54.324;18.558;2022-07-23T01:52:05;17.70;99.90
42913;DHT22;50720;54.324;18.558;2022-07-23T01:54:40;17.60;99.90
42913;DHT22;50720;54.324;18.558;2022-07-23T01:57:10;17.60;99.90
42913;DHT22;50720;54.324;18.558;2022-07-23T01:59:40;17.50;99.90
42913;DHT22;50720;54.324;18.558;2022-07-23T02:02:09;17.40;99.90
42913;DHT22;50720;54.324;18.558;2022-07-23T02:04:39;17.40;99.90
42913;DHT22;50720;54.324;18.558;2022-07-23T02:07:09;17.30;99.90
42913;DHT22;50720;54.324;18.558;2022-07-23T02:09:40;17.30;99.90
42913;DHT22;50720;54.324;18.558;2022-07-23T02:12:10;17.20;99.90
42913;DHT22;50720;54.324;18.558;2022-07-23T02:14:40;17.20;99.90
42913;DHT22;50720;54.324;18.558;2022-07-23T02:17:10;17.20;99.90
42913;DHT22;50720;54.324;18.558;2022-07-23T02:19:39;17.10;99.90
42913;DHT22;50720;54.324;18.558;2022-07-23T02:22:09;17.10;99.90
42913;DHT22;50720;54.324;18.558;2022-07-23T02:24:40;17.00;99.90
42913;DHT22;50720;54.324;18.558;2022-07-23T02:27:10;17.00;99.90
42913;DHT22;50720;54.324;18.558;2022-07-23T02:29:40;17.00;99.90
42913;DHT22;50720;54.324;18.558;2022-07-23T02:32:09;16.90;99.90
42913;DHT22;50720;54.324;18.558;2022-07-23T02:34:39;16.90;99.90
42913;DHT22;50720;54.324;18.558;2022-07-23T02:37:10;16.90;99.90
42913;DHT22;50720;54.324;18.558;2022-07-23T02:39:41;16.90;99.90
42913;DHT22;50720;54.324;18.558;2022-07-23T02:42:11;16.90;99.90
42913;DHT22;50720;54.324;18.558;2022-07-23T02:44:40;17.00;99.90
42913;DHT22;50720;54.324;18.558;2022-07-23T02:47:10;16.90;99.90
42913;DHT22;50720;54.324;18.558;2022-07-23T02:49:40;17.00;99.90
42913;DHT22;50720;54.324;18.558;2022-07-23T02:52:09;17.00;99.90
42913;DHT22;50720;54.324;18.558;2022-07-23T02:54:40;17.00;99.90
42913;DHT22;50720;54.324;18.558;2022-07-23T02:57:10;17.00;99.90
42913;DHT22;50720;54.324;18.558;2022-07-23T02:59:40;17.10;99.90
42913;DHT22;50720;54.324;18.558;2022-07-23T03:02:09;17.10;99.90
42913;DHT22;50720;54.324;18.558;2022-07-23T03:04:40;17.00;99.90
42913;DHT22;50720;54.324;18.558;2022-07-23T03:07:11;17.00;99.90
42913;DHT22;50720;54.324;18.558;2022-07-23T03:09:43;17.10;99.90
42913;DHT22;50720;54.324;18.558;2022-07-23T03:12:13;17.00;99.90
42913;DHT22;50720;54.324;18.558;2022-07-23T03:14:43;17.00;99.90
42913;DHT22;50720;54.324;18.558;2022-07-23T03:17:12;17.00;99.90
42913;DHT22;50720;54.324;18.558;2022-07-23T03:19:42;16.80;99.90
42913;DHT22;50720;54.324;18.558;2022-07-23T03:22:12;16.80;99.90
42913;DHT22;50720;54.324;18.558;2022-07-23T03:24:43;16.90;99.90
42913;DHT22;50720;54.324;18.558;2022-07-23T03:27:27;16.90;99.90
42913;DHT22;50720;54.324;18.558;2022-07-23T03:29:58;16.90;99.90
42913;DHT22;50720;54.324;18.558;2022-07-23T03:32:28;17.00;99.90
42913;DHT22;50720;54.324;18.558;2022-07-23T03:34:59;17.00;99.90
42913;DHT22;50720;54.324;18.558;2022-07-23T03:37:30;17.00;99.90
42913;DHT22;50720;54.324;18.558;2022-07-23T03:40:01;17.00;99.90
42913;DHT22;50720;54.324;18.558;2022-07-23T03:42:32;17.00;99.90
42913;DHT22;50720;54.324;18.558;2022-07-23T03:45:02;17.00;99.90
42913;DHT22;50720;54.324;18.558;2022-07-23T03:47:31;17.10;99.90
42913;DHT22;50720;54.324;18.558;2022-07-23T03:50:02;17.10;99.90
42913;DHT22;50720;54.324;18.558;2022-07-23T03:52:31;17.10;99.90
42913;DHT22;50720;54.324;18.558;2022-07-23T03:55:03;17.10;99.90
42913;DHT22;50720;54.324;18.558;2022-07-23T03:57:33;17.10;99.90
42913;DHT22;50720;54.324;18.558;2022-07-23T04:00:03;17.10;99.90
42913;DHT22;50720;54.324;18.558;2022-07-23T04:02:35;17.10;99.90
42913;DHT22;50720;54.324;18.558;2022-07-23T04:05:06;17.10;99.90
42913;DHT22;50720;54.324;18.558;2022-07-23T04:07:36;17.20;99.90
42913;DHT22;50720;54.324;18.558;2022-07-23T04:10:08;17.20;99.90
42913;DHT22;50720;54.324;18.558;2022-07-23T04:12:38;17.20;99.90
42913;DHT22;50720;54.324;18.558;2022-07-23T04:15:08;17.30;99.90
42913;DHT22;50720;54.324;18.558;2022-07-23T04:17:39;17.30;99.90
42913;DHT22;50720;54.324;18.558;2022-07-23T04:20:09;17.50;99.90
42913;DHT22;50720;54.324;18.558;2022-07-23T04:22:39;17.60;99.90
42913;DHT22;50720;54.324;18.558;2022-07-23T04:25:11;17.60;99.90
42913;DHT22;50720;54.324;18.558;2022-07-23T04:27:41;17.70;99.90
42913;DHT22;50720;54.324;18.558;2022-07-23T04:30:11;17.70;99.90
42913;DHT22;50720;54.324;18.558;2022-07-23T04:32:41;17.90;99.90
42913;DHT22;50720;54.324;18.558;2022-07-23T04:35:10;17.90;99.90
42913;DHT22;50720;54.324;18.558;2022-07-23T04:37:40;18.00;99.90
42913;DHT22;50720;54.324;18.558;2022-07-23T04:40:13;18.10;99.90
42913;DHT22;50720;54.324;18.558;2022-07-23T04:42:43;18.20;99.90
42913;DHT22;50720;54.324;18.558;2022-07-23T04:45:12;18.30;99.90
42913;DHT22;50720;54.324;18.558;2022-07-23T04:47:42;18.40;99.90
42913;DHT22;50720;54.324;18.558;2022-07-23T04:50:13;18.50;99.90
42913;DHT22;50720;54.324;18.558;2022-07-23T04:52:45;18.50;99.90
42913;DHT22;50720;54.324;18.558;2022-07-23T04:55:17;18.40;99.90
42913;DHT22;50720;54.324;18.558;2022-07-23T04:57:46;18.40;99.90
42913;DHT22;50720;54.324;18.558;2022-07-23T05:00:17;18.50;99.90
42913;DHT22;50720;54.324;18.558;2022-07-23T05:02:46;18.50;99.90
42913;DHT22;50720;54.324;18.558;2022-07-23T05:05:15;18.60;99.90
42913;DHT22;50720;54.324;18.558;2022-07-23T05:07:45;18.60;99.90
42913;DHT22;50720;54.324;18.558;2022-07-23T05:10:17;18.50;99.90
42913;DHT22;50720;54.324;18.558;2022-07-23T05:12:47;18.50;99.90
42913;DHT22;50720;54.324;18.558;2022-07-23T05:15:16;18.40;99.90
42913;DHT22;50720;54.324;18.558;2022-07-23T05:17:46;18.50;99.90
42913;DHT22;50720;54.324;18.558;2022-07-23T05:20:16;18.60;99.90
42913;DHT22;50720;54.324;18.558;2022-07-23T05:22:45;18.60;99.90
42913;DHT22;50720;54.324;18.558;2022-07-23T05:25:16;18.60;99.90
42913;DHT22;50720;54.324;18.558;2022-07-23T05:27:46;18.70;99.90
42913;DHT22;50720;54.324;18.558;2022-07-23T05:30:16;18.80;99.90
42913;DHT22;50720;54.324;18.558;2022-07-23T05:32:46;18.90;99.90
42913;DHT22;50720;54.324;18.558;2022-07-23T05:35:17;19.00;99.90
42913;DHT22;50720;54.324;18.558;2022-07-23T05:37:47;19.10;99.90
42913;DHT22;50720;54.324;18.558;2022-07-23T05:40:18;19.10;99.90
42913;DHT22;50720;54.324;18.558;2022-07-23T05:42:48;19.20;99.90
42913;DHT22;50720;54.324;18.558;2022-07-23T05:45:18;19.20;99.90
42913;DHT22;50720;54.324;18.558;2022-07-23T05:47:48;19.20;99.90
42913;DHT22;50720;54.324;18.558;2022-07-23T05:50:19;19.20;99.90
42913;DHT22;50720;54.324;18.558;2022-07-23T05:52:48;19.20;99.90
42913;DHT22;50720;54.324;18.558;2022-07-23T05:55:19;19.10;99.90
42913;DHT22;50720;54.324;18.558;2022-07-23T05:57:49;19.20;99.90
42913;DHT22;50720;54.324;18.558;2022-07-23T06:00:19;19.30;99.90
42913;DHT22;50720;54.324;18.558;2022-07-23T06:02:48;19.40;99.90
42913;DHT22;50720;54.324;18.558;2022-07-23T06:05:23;19.50;99.90
42913;DHT22;50720;54.324;18.558;2022-07-23T06:07:53;19.60;99.90
42913;DHT22;50720;54.324;18.558;2022-07-23T06:10:24;19.80;99.90
42913;DHT22;50720;54.324;18.558;2022-07-23T06:12:54;19.90;99.90
42913;DHT22;50720;54.324;18.558;2022-07-23T06:15:29;19.90;99.90
42913;DHT22;50720;54.324;18.558;2022-07-23T06:17:59;20.00;99.90
42913;DHT22;50720;54.324;18.558;2022-07-23T06:20:29;20.10;99.90
42913;DHT22;50720;54.324;18.558;2022-07-23T06:22:58;20.10;99.90
42913;DHT22;50720;54.324;18.558;2022-07-23T06:25:30;20.10;99.90
42913;DHT22;50720;54.324;18.558;2022-07-23T06:27:59;20.10;99.90
42913;DHT22;50720;54.324;18.558;2022-07-23T06:30:29;20.20;99.90
42913;DHT22;50720;54.324;18.558;2022-07-23T06:32:59;20.30;99.90
42913;DHT22;50720;54.324;18.558;2022-07-23T06:35:28;20.30;99.90
42913;DHT22;50720;54.324;18.558;2022-07-23T06:37:58;20.40;99.90
42913;DHT22;50720;54.324;18.558;2022-07-23T06:40:30;20.70;99.90
42913;DHT22;50720;54.324;18.558;2022-07-23T06:43:00;20.80;99.90
42913;DHT22;50720;54.324;18.558;2022-07-23T06:45:30;20.80;99.90
42913;DHT22;50720;54.324;18.558;2022-07-23T06:48:00;20.90;99.90
42913;DHT22;50720;54.324;18.558;2022-07-23T06:50:30;21.10;99.90
42913;DHT22;50720;54.324;18.558;2022-07-23T06:53:00;21.10;99.90
42913;DHT22;50720;54.324;18.558;2022-07-23T06:55:32;21.30;99.90
42913;DHT22;50720;54.324;18.558;2022-07-23T06:58:06;21.50;99.90
42913;DHT22;50720;54.324;18.558;2022-07-23T07:00:37;21.50;99.90
42913;DHT22;50720;54.324;18.558;2022-07-23T07:03:07;21.60;99.90
42913;DHT22;50720;54.324;18.558;2022-07-23T07:05:37;21.80;99.90
42913;DHT22;50720;54.324;18.558;2022-07-23T07:08:08;21.80;99.90
42913;DHT22;50720;54.324;18.558;2022-07-23T07:10:39;21.70;99.90
42913;DHT22;50720;54.324;18.558;2022-07-23T07:13:09;21.60;99.90
42913;DHT22;50720;54.324;18.558;2022-07-23T07:15:38;21.70;99.90
42913;DHT22;50720;54.324;18.558;2022-07-23T07:18:08;21.80;99.90
42913;DHT22;50720;54.324;18.558;2022-07-23T07:20:38;21.90;99.90
42913;DHT22;50720;54.324;18.558;2022-07-23T07:23:08;22.00;99.90
42913;DHT22;50720;54.324;18.558;2022-07-23T07:25:39;21.90;99.90
42913;DHT22;50720;54.324;18.558;2022-07-23T07:28:09;21.80;99.90
42913;DHT22;50720;54.324;18.558;2022-07-23T07:30:39;21.90;99.90
42913;DHT22;50720;54.324;18.558;2022-07-23T07:33:09;21.90;99.90
42913;DHT22;50720;54.324;18.558;2022-07-23T07:35:39;21.90;99.90
42913;DHT22;50720;54.324;18.558;2022-07-23T07:38:08;22.00;99.90
42913;DHT22;50720;54.324;18.558;2022-07-23T07:40:39;22.10;99.90
42913;DHT22;50720;54.324;18.558;2022-07-23T07:43:09;22.10;99.90
42913;DHT22;50720;54.324;18.558;2022-07-23T07:45:39;22.20;99.90
42913;DHT22;50720;54.324;18.558;2022-07-23T07:48:08;22.30;99.90
42913;DHT22;50720;54.324;18.558;2022-07-23T07:50:38;22.40;99.90
42913;DHT22;50720;54.324;18.558;2022-07-23T07:53:08;22.50;99.90
42913;DHT22;50720;54.324;18.558;2022-07-23T07:55:39;22.60;99.90
42913;DHT22;50720;54.324;18.558;2022-07-23T07:58:09;22.30;99.90
42913;DHT22;50720;54.324;18.558;2022-07-23T08:00:40;22.40;99.90
42913;DHT22;50720;54.324;18.558;2022-07-23T08:03:09;22.60;99.90
42913;DHT22;50720;54.324;18.558;2022-07-23T08:05:40;22.70;99.90
42913;DHT22;50720;54.324;18.558;2022-07-23T08:08:09;22.60;99.90
42913;DHT22;50720;54.324;18.558;2022-07-23T08:10:44;22.70;99.90
42913;DHT22;50720;54.324;18.558;2022-07-23T08:13:15;22.70;99.90
42913;DHT22;50720;54.324;18.558;2022-07-23T08:15:45;22.70;99.90
42913;DHT22;50720;54.324;18.558;2022-07-23T08:18:15;22.70;99.90
42913;DHT22;50720;54.324;18.558;2022-07-23T08:20:44;22.80;99.90
42913;DHT22;50720;54.324;18.558;2022-07-23T08:23:14;22.90;99.90
42913;DHT22;50720;54.324;18.558;2022-07-23T08:25:48;22.90;99.90
42913;DHT22;50720;54.324;18.558;2022-07-23T08:28:18;22.90;99.90
42913;DHT22;50720;54.324;18.558;2022-07-23T08:30:48;22.80;99.90
42913;DHT22;50720;54.324;18.558;2022-07-23T08:33:18;22.80;99.90
42913;DHT22;50720;54.324;18.558;2022-07-23T08:36:02;22.80;99.90
42913;DHT22;50720;54.324;18.558;2022-07-23T08:38:33;22.90;99.90
42913;DHT22;50720;54.324;18.558;2022-07-23T08:41:07;23.00;99.90
42913;DHT22;50720;54.324;18.558;2022-07-23T08:43:37;23.10;99.90
42913;DHT22;50720;54.324;18.558;2022-07-23T08:46:10;23.20;99.90
42913;DHT22;50720;54.324;18.558;2022-07-23T08:48:41;23.30;99.90
42913;DHT22;50720;54.324;18.558;2022-07-23T08:51:11;23.40;99.90
42913;DHT22;50720;54.324;18.558;2022-07-23T08:53:40;23.50;99.90
42913;DHT22;50720;54.324;18.558;2022-07-23T08:56:11;23.50;99.90
42913;DHT22;50720;54.324;18.558;2022-07-23T08:58:42;23.50;99.90
42913;DHT22;50720;54.324;18.558;2022-07-23T09:01:11;23.40;99.90
42913;DHT22;50720;54.324;18.558;2022-07-23T09:03:41;23.40;99.90
42913;DHT22;50720;54.324;18.558;2022-07-23T09:06:13;23.60;99.90
42913;DHT22;50720;54.324;18.558;2022-07-23T09:08:44;23.80;99.90
42913;DHT22;50720;54.324;18.558;2022-07-23T09:11:17;23.80;99.90
42913;DHT22;50720;54.324;18.558;2022-07-23T09:13:47;23.70;99.90
42913;DHT22;50720;54.324;18.558;2022-07-23T09:16:19;23.70;99.90
42913;DHT22;50720;54.324;18.558;2022-07-23T09:18:51;23.70;99.90
42913;DHT22;50720;54.324;18.558;2022-07-23T09:21:23;23.60;99.90
42913;DHT22;50720;54.324;18.558;2022-07-23T09:23:56;23.60;99.90
42913;DHT22;50720;54.324;18.558;2022-07-23T09:26:35;23.80;99.90
42913;DHT22;50720;54.324;18.558;2022-07-23T09:29:10;24.20;99.90
42913;DHT22;50720;54.324;18.558;2022-07-23T09:31:46;24.50;99.90
42913;DHT22;50720;54.324;18.558;2022-07-23T09:34:19;24.80;99.90
42913;DHT22;50720;54.324;18.558;2022-07-23T09:36:53;25.00;99.90
42913;DHT22;50720;54.324;18.558;2022-07-23T09:39:27;25.10;99.90
42913;DHT22;50720;54.324;18.558;2022-07-23T09:42:13;25.10;99.90
42913;DHT22;50720;54.324;18.558;2022-07-23T09:44:44;25.00;99.90
42913;DHT22;50720;54.324;18.558;2022-07-23T09:47:14;24.90;99.90
42913;DHT22;50720;54.324;18.558;2022-07-23T09:49:58;24.90;99.90
42913;DHT22;50720;54.324;18.558;2022-07-23T09:52:30;24.90;99.90
42913;DHT22;50720;54.324;18.558;2022-07-23T09:55:04;24.90;99.90
42913;DHT22;50720;54.324;18.558;2022-07-23T09:57:36;25.30;99.90
42913;DHT22;50720;54.324;18.558;2022-07-23T10:00:09;25.40;99.90
42913;DHT22;50720;54.324;18.558;2022-07-23T10:02:40;25.50;99.90
42913;DHT22;50720;54.324;18.558;2022-07-23T10:05:10;25.50;99.90
42913;DHT22;50720;54.324;18.558;2022-07-23T10:07:40;25.70;99.90
42913;DHT22;50720;54.324;18.558;2022-07-23T10:10:10;25.70;99.90
42913;DHT22;50720;54.324;18.558;2022-07-23T10:12:41;25.50;99.90
42913;DHT22;50720;54.324;18.558;2022-07-23T10:15:40;25.30;99.90
42913;DHT22;50720;54.324;18.558;2022-07-23T10:18:11;24.60;99.90
42913;DHT22;50720;54.324;18.558;2022-07-23T10:20:41;24.40;99.90
42913;DHT22;50720;54.324;18.558;2022-07-23T10:23:17;24.30;99.90
42913;DHT22;50720;54.324;18.558;2022-07-23T10:25:55;24.30;99.90
42913;DHT22;50720;54.324;18.558;2022-07-23T10:28:51;24.20;99.90
42913;DHT22;50720;54.324;18.558;2022-07-23T10:31:35;24.10;99.90
42913;DHT22;50720;54.324;18.558;2022-07-23T10:34:31;24.00;99.90
42913;DHT22;50720;54.324;18.558;2022-07-23T10:37:13;24.00;99.90
42913;DHT22;50720;54.324;18.558;2022-07-23T10:39:48;24.00;99.90
42913;DHT22;50720;54.324;18.558;2022-07-23T10:42:38;23.80;99.90
42913;DHT22;50720;54.324;18.558;2022-07-23T10:45:31;23.60;99.90
42913;DHT22;50720;54.324;18.558;2022-07-23T10:48:16;23.70;99.90
42913;DHT22;50720;54.324;18.558;2022-07-23T10:51:07;23.70;99.90
42913;DHT22;50720;54.324;18.558;2022-07-23T10:53:55;23.80;99.90
42913;DHT22;50720;54.324;18.558;2022-07-23T10:56:50;23.60;99.90
42913;DHT22;50720;54.324;18.558;2022-07-23T10:59:21;23.60;99.90
42913;DHT22;50720;54.324;18.558;2022-07-23T11:01:51;23.40;99.90
42913;DHT22;50720;54.324;18.558;2022-07-23T11:04:48;23.10;99.90
42913;DHT22;50720;54.324;18.558;2022-07-23T11:07:18;23.10;99.90
42913;DHT22;50720;54.324;18.558;2022-07-23T11:09:49;23.00;99.90
42913;DHT22;50720;54.324;18.558;2022-07-23T11:12:32;23.00;99.90
42913;DHT22;50720;54.324;18.558;2022-07-23T11:15:05;22.90;99.90
42913;DHT22;50720;54.324;18.558;2022-07-23T11:17:38;22.80;99.90
42913;DHT22;50720;54.324;18.558;2022-07-23T11:20:20;22.80;99.90
42913;DHT22;50720;54.324;18.558;2022-07-23T11:22:52;22.90;99.90
42913;DHT22;50720;54.324;18.558;2022-07-23T11:25:33;22.90;99.90
42913;DHT22;50720;54.324;18.558;2022-07-23T11:28:15;22.80;99.90
42913;DHT22;50720;54.324;18.558;2022-07-23T11:30:46;22.70;99.90
42913;DHT22;50720;54.324;18.558;2022-07-23T11:33:19;22.50;99.90
42913;DHT22;50720;54.324;18.558;2022-07-23T11:36:01;22.30;99.90
42913;DHT22;50720;54.324;18.558;2022-07-23T11:38:32;22.30;99.90
42913;DHT22;50720;54.324;18.558;2022-07-23T11:41:03;22.30;99.90
42913;DHT22;50720;54.324;18.558;2022-07-23T11:43:36;22.20;99.90
42913;DHT22;50720;54.324;18.558;2022-07-23T11:46:10;22.30;99.90
42913;DHT22;50720;54.324;18.558;2022-07-23T11:48:41;22.20;99.90
42913;DHT22;50720;54.324;18.558;2022-07-23T11:51:24;22.20;99.90
42913;DHT22;50720;54.324;18.558;2022-07-23T11:53:54;22.00;99.90
42913;DHT22;50720;54.324;18.558;2022-07-23T11:56:34;22.00;99.90
42913;DHT22;50720;54.324;18.558;2022-07-23T11:59:04;21.90;99.90
42913;DHT22;50720;54.324;18.558;2022-07-23T12:01:35;21.90;99.90
42913;DHT22;50720;54.324;18.558;2022-07-23T12:04:06;21.90;99.90
42913;DHT22;50720;54.324;18.558;2022-07-23T12:06:38;21.80;99.90
42913;DHT22;50720;54.324;18.558;2022-07-23T12:09:07;21.70;99.90
42913;DHT22;50720;54.324;18.558;2022-07-23T12:11:56;21.60;99.90
42913;DHT22;50720;54.324;18.558;2022-07-23T12:14:26;21.50;99.90
42913;DHT22;50720;54.324;18.558;2022-07-23T12:17:09;21.50;99.90
42913;DHT22;50720;54.324;18.558;2022-07-23T12:19:40;21.50;99.90
42913;DHT22;50720;54.324;18.558;2022-07-23T12:22:13;21.20;99.90
42913;DHT22;50720;54.324;18.558;2022-07-23T12:24:56;21.00;99.90
42913;DHT22;50720;54.324;18.558;2022-07-23T12:27:27;20.90;99.90
42913;DHT22;50720;54.324;18.558;2022-07-23T12:29:57;20.80;99.90
42913;DHT22;50720;54.324;18.558;2022-07-23T12:32:27;20.70;99.90
42913;DHT22;50720;54.324;18.558;2022-07-23T12:35:08;20.50;99.90
42913;DHT22;50720;54.324;18.558;2022-07-23T12:37:38;20.50;99.90
42913;DHT22;50720;54.324;18.558;2022-07-23T12:40:25;20.60;99.90
42913;DHT22;50720;54.324;18.558;2022-07-23T12:42:57;20.70;99.90
42913;DHT22;50720;54.324;18.558;2022-07-23T12:45:41;20.40;99.90
42913;DHT22;50720;54.324;18.558;2022-07-23T12:48:20;20.50;99.90
42913;DHT22;50720;54.324;18.558;2022-07-23T12:50:56;20.50;99.90
42913;DHT22;50720;54.324;18.558;2022-07-23T12:53:28;20.80;99.90
42913;DHT22;50720;54.324;18.558;2022-07-23T12:56:02;21.10;99.90
42913;DHT22;50720;54.324;18.558;2022-07-23T12:58:45;21.40;99.90
42913;DHT22;50720;54.324;18.558;2022-07-23T13:01:23;21.70;99.90
42913;DHT22;50720;54.324;18.558;2022-07-23T13:04:00;22.00;99.90
42913;DHT22;50720;54.324;18.558;2022-07-23T13:06:42;22.30;99.90
42913;DHT22;50720;54.324;18.558;2022-07-23T13:09:13;22.60;99.90
42913;DHT22;50720;54.324;18.558;2022-07-23T13:11:44;22.90;99.90
42913;DHT22;50720;54.324;18.558;2022-07-23T13:14:16;23.30;99.90
42913;DHT22;50720;54.324;18.558;2022-07-23T13:16:49;23.50;99.90
42913;DHT22;50720;54.324;18.558;2022-07-23T13:19:19;24.20;99.90
42913;DHT22;50720;54.324;18.558;2022-07-23T13:21:54;24.60;99.90
42913;DHT22;50720;54.324;18.558;2022-07-23T13:24:25;25.00;99.90
42913;DHT22;50720;54.324;18.558;2022-07-23T13:26:55;25.00;99.90
42913;DHT22;50720;54.324;18.558;2022-07-23T13:29:25;25.20;99.90
42913;DHT22;50720;54.324;18.558;2022-07-23T13:31:54;24.90;99.90
42913;DHT22;50720;54.324;18.558;2022-07-23T13:34:25;24.90;99.90
42913;DHT22;50720;54.324;18.558;2022-07-23T13:36:56;24.90;99.90
42913;DHT22;50720;54.324;18.558;2022-07-23T13:39:26;24.90;99.90
42913;DHT22;50720;54.324;18.558;2022-07-23T13:41:57;25.50;99.90
42913;DHT22;50720;54.324;18.558;2022-07-23T13:44:26;25.80;99.90
42913;DHT22;50720;54.324;18.558;2022-07-23T13:46:56;26.10;99.90
42913;DHT22;50720;54.324;18.558;2022-07-23T13:49:26;26.30;99.90
42913;DHT22;50720;54.324;18.558;2022-07-23T13:51:58;26.30;99.90
42913;DHT22;50720;54.324;18.558;2022-07-23T13:54:28;26.40;99.90
42913;DHT22;50720;54.324;18.558;2022-07-23T13:56:57;26.40;99.90
42913;DHT22;50720;54.324;18.558;2022-07-23T13:59:28;26.20;99.90
42913;DHT22;50720;54.324;18.558;2022-07-23T14:01:57;25.30;99.90
42913;DHT22;50720;54.324;18.558;2022-07-23T14:04:47;24.70;99.90
42913;DHT22;50720;54.324;18.558;2022-07-23T14:07:18;24.50;99.90
42913;DHT22;50720;54.324;18.558;2022-07-23T14:09:49;24.70;99.90
42913;DHT22;50720;54.324;18.558;2022-07-23T14:12:19;25.10;99.90
42913;DHT22;50720;54.324;18.558;2022-07-23T14:14:50;25.30;99.90
42913;DHT22;50720;54.324;18.558;2022-07-23T14:17:20;25.30;99.90
42913;DHT22;50720;54.324;18.558;2022-07-23T14:19:53;25.40;99.90
42913;DHT22;50720;54.324;18.558;2022-07-23T14:22:24;25.00;99.90
42913;DHT22;50720;54.324;18.558;2022-07-23T14:24:54;25.00;99.90
42913;DHT22;50720;54.324;18.558;2022-07-23T14:27:27;24.60;99.90
42913;DHT22;50720;54.324;18.558;2022-07-23T14:29:58;24.70;99.90
42913;DHT22;50720;54.324;18.558;2022-07-23T14:32:31;24.90;99.90
42913;DHT22;50720;54.324;18.558;2022-07-23T14:35:00;25.40;99.90
42913;DHT22;50720;54.324;18.558;2022-07-23T14:37:33;25.30;99.90
42913;DHT22;50720;54.324;18.558;2022-07-23T14:40:05;25.10;99.90
42913;DHT22;50720;54.324;18.558;2022-07-23T14:42:35;24.70;99.90
42913;DHT22;50720;54.324;18.558;2022-07-23T14:45:05;24.50;99.90
42913;DHT22;50720;54.324;18.558;2022-07-23T14:47:37;23.90;99.90
42913;DHT22;50720;54.324;18.558;2022-07-23T14:50:09;24.10;99.90
42913;DHT22;50720;54.324;18.558;2022-07-23T14:52:40;24.50;99.90
42913;DHT22;50720;54.324;18.558;2022-07-23T14:55:11;24.80;99.90
42913;DHT22;50720;54.324;18.558;2022-07-23T14:57:41;24.60;99.90
42913;DHT22;50720;54.324;18.558;2022-07-23T15:00:11;24.20;99.90
42913;DHT22;50720;54.324;18.558;2022-07-23T15:02:43;24.00;99.90
42913;DHT22;50720;54.324;18.558;2022-07-23T15:05:33;23.70;99.90
42913;DHT22;50720;54.324;18.558;2022-07-23T15:08:05;23.40;99.90
42913;DHT22;50720;54.324;18.558;2022-07-23T15:10:36;23.50;99.90
42913;DHT22;50720;54.324;18.558;2022-07-23T15:13:05;23.50;99.90
42913;DHT22;50720;54.324;18.558;2022-07-23T15:15:35;23.90;99.90
42913;DHT22;50720;54.324;18.558;2022-07-23T15:18:07;24.10;99.90
42913;DHT22;50720;54.324;18.558;2022-07-23T15:20:37;24.30;99.90
42913;DHT22;50720;54.324;18.558;2022-07-23T15:23:09;24.60;99.90
42913;DHT22;50720;54.324;18.558;2022-07-23T15:25:39;25.10;99.90
42913;DHT22;50720;54.324;18.558;2022-07-23T15:28:17;24.90;99.90
42913;DHT22;50720;54.324;18.558;2022-07-23T15:30:48;24.60;99.90
42913;DHT22;50720;54.324;18.558;2022-07-23T15:33:19;24.50;99.90
42913;DHT22;50720;54.324;18.558;2022-07-23T15:35:52;24.30;99.90
42913;DHT22;50720;54.324;18.558;2022-07-23T15:38:25;24.20;99.90
42913;DHT22;50720;54.324;18.558;2022-07-23T15:40:57;24.20;99.90
42913;DHT22;50720;54.324;18.558;2022-07-23T15:43:28;24.40;99.90
42913;DHT22;50720;54.324;18.558;2022-07-23T15:45:58;24.50;99.90
42913;DHT22;50720;54.324;18.558;2022-07-23T15:48:28;24.50;99.90